sensor_id;sensor_type;location;lat;lon;timestamp;P1;durP1;ratioP1;P2;durP2;ratioP2
20022;SDS011;10172;42.054;24.546;2024-03-02T00:00:19;201.60;;;52.38;;
20022;SDS011;10172;42.054;24.546;2024-03-02T00:02:46;183.70;;;52.95;;
20022;SDS011;10172;42.054;24.546;2024-03-02T00:05:14;161.60;;;52.53;;
20022;SDS011;10172;42.054;24.546;2024-03-02T00:07:41;164.00;;;52.75;;
20022;SDS011;10172;42.054;24.546;2024-03-02T00:10:08;152.88;;;50.17;;
20022;SDS011;10172;42.054;24.546;2024-03-02T00:12:38;143.80;;;48.58;;
20022;SDS011;10172;42.054;24.546;2024-03-02T00:15:41;147.60;;;49.40;;
20022;SDS011;10172;42.054;24.546;2024-03-02T00:18:19;154.27;;;49.45;;
20022;SDS011;10172;42.054;24.546;2024-03-02T00:20:45;145.43;;;49.58;;
20022;SDS011;10172;42.054;24.546;2024-03-02T00:23:14;145.07;;;48.13;;
20022;SDS011;10172;42.054;24.546;2024-03-02T00:28:20;137.27;;;45.75;;
20022;SDS011;10172;42.054;24.546;2024-03-02T00:33:42;142.38;;;47.17;;
20022;SDS011;10172;42.054;24.546;2024-03-02T00:36:08;127.47;;;44.30;;
20022;SDS011;10172;42.054;24.546;2024-03-02T00:38:35;130.05;;;45.65;;
20022;SDS011;10172;42.054;24.546;2024-03-02T00:41:15;143.00;;;47.13;;
20022;SDS011;10172;42.054;24.546;2024-03-02T00:43:43;155.60;;;50.67;;
20022;SDS011;10172;42.054;24.546;2024-03-02T00:46:09;180.73;;;61.33;;
20022;SDS011;10172;42.054;24.546;2024-03-02T00:48:36;162.07;;;48.88;;
20022;SDS011;10172;42.054;24.546;2024-03-02T00:51:02;208.00;;;49.00;;
20022;SDS011;10172;42.054;24.546;2024-03-02T00:53:31;151.25;;;46.97;;
20022;SDS011;10172;42.054;24.546;2024-03-02T00:55:58;149.77;;;47.47;;
20022;SDS011;10172;42.054;24.546;2024-03-02T00:58:24;185.73;;;45.70;;
20022;SDS011;10172;42.054;24.546;2024-03-02T01:00:52;189.07;;;49.42;;
20022;SDS011;10172;42.054;24.546;2024-03-02T01:03:18;188.57;;;49.58;;
20022;SDS011;10172;42.054;24.546;2024-03-02T01:05:44;219.80;;;49.22;;
20022;SDS011;10172;42.054;24.546;2024-03-02T01:08:10;305.50;;;47.92;;
20022;SDS011;10172;42.054;24.546;2024-03-02T01:10:35;270.10;;;49.58;;
20022;SDS011;10172;42.054;24.546;2024-03-02T01:13:01;410.33;;;50.28;;
20022;SDS011;10172;42.054;24.546;2024-03-02T01:15:26;284.42;;;47.65;;
20022;SDS011;10172;42.054;24.546;2024-03-02T01:17:51;274.65;;;52.53;;
20022;SDS011;10172;42.054;24.546;2024-03-02T01:20:17;272.23;;;45.67;;
20022;SDS011;10172;42.054;24.546;2024-03-02T01:22:43;259.75;;;51.92;;
20022;SDS011;10172;42.054;24.546;2024-03-02T01:25:08;338.95;;;50.60;;
20022;SDS011;10172;42.054;24.546;2024-03-02T01:27:34;232.93;;;51.05;;
20022;SDS011;10172;42.054;24.546;2024-03-02T01:29:59;410.58;;;53.80;;
20022;SDS011;10172;42.054;24.546;2024-03-02T01:32:25;540.20;;;53.10;;
20022;SDS011;10172;42.054;24.546;2024-03-02T01:34:50;317.20;;;52.42;;
20022;SDS011;10172;42.054;24.546;2024-03-02T01:37:16;328.05;;;59.10;;
20022;SDS011;10172;42.054;24.546;2024-03-02T01:39:41;267.13;;;54.50;;
20022;SDS011;10172;42.054;24.546;2024-03-02T01:42:07;213.48;;;53.95;;
20022;SDS011;10172;42.054;24.546;2024-03-02T01:44:32;344.65;;;55.47;;
20022;SDS011;10172;42.054;24.546;2024-03-02T01:46:57;183.93;;;53.72;;
20022;SDS011;10172;42.054;24.546;2024-03-02T01:49:23;249.30;;;52.80;;
20022;SDS011;10172;42.054;24.546;2024-03-02T01:51:48;153.32;;;49.00;;
20022;SDS011;10172;42.054;24.546;2024-03-02T01:54:14;152.75;;;49.25;;
20022;SDS011;10172;42.054;24.546;2024-03-02T01:56:39;150.85;;;49.05;;
20022;SDS011;10172;42.054;24.546;2024-03-02T01:59:05;166.68;;;48.03;;
20022;SDS011;10172;42.054;24.546;2024-03-02T02:01:31;154.65;;;49.05;;
20022;SDS011;10172;42.054;24.546;2024-03-02T02:03:56;163.50;;;49.00;;
20022;SDS011;10172;42.054;24.546;2024-03-02T02:06:22;290.52;;;47.33;;
20022;SDS011;10172;42.054;24.546;2024-03-02T02:08:47;152.50;;;46.72;;
20022;SDS011;10172;42.054;24.546;2024-03-02T02:11:16;298.77;;;47.22;;
20022;SDS011;10172;42.054;24.546;2024-03-02T02:13:42;268.88;;;47.45;;
20022;SDS011;10172;42.054;24.546;2024-03-02T02:16:07;172.30;;;46.13;;
20022;SDS011;10172;42.054;24.546;2024-03-02T02:18:33;133.43;;;47.35;;
20022;SDS011;10172;42.054;24.546;2024-03-02T02:20:59;122.55;;;44.45;;
20022;SDS011;10172;42.054;24.546;2024-03-02T02:23:24;148.25;;;46.47;;
20022;SDS011;10172;42.054;24.546;2024-03-02T02:25:50;232.45;;;46.08;;
20022;SDS011;10172;42.054;24.546;2024-03-02T02:28:15;117.50;;;45.47;;
20022;SDS011;10172;42.054;24.546;2024-03-02T02:30:40;122.95;;;45.30;;
20022;SDS011;10172;42.054;24.546;2024-03-02T02:33:06;118.22;;;46.22;;
20022;SDS011;10172;42.054;24.546;2024-03-02T02:35:31;132.60;;;47.15;;
20022;SDS011;10172;42.054;24.546;2024-03-02T02:37:57;130.95;;;47.15;;
20022;SDS011;10172;42.054;24.546;2024-03-02T02:40:24;131.50;;;50.75;;
20022;SDS011;10172;42.054;24.546;2024-03-02T02:42:49;120.32;;;47.00;;
20022;SDS011;10172;42.054;24.546;2024-03-02T02:45:17;118.75;;;43.25;;
20022;SDS011;10172;42.054;24.546;2024-03-02T02:47:43;120.03;;;45.28;;
20022;SDS011;10172;42.054;24.546;2024-03-02T02:50:09;121.50;;;46.33;;
20022;SDS011;10172;42.054;24.546;2024-03-02T02:52:36;136.20;;;47.05;;
20022;SDS011;10172;42.054;24.546;2024-03-02T02:55:04;133.68;;;45.40;;
20022;SDS011;10172;42.054;24.546;2024-03-02T02:57:34;139.07;;;44.58;;
20022;SDS011;10172;42.054;24.546;2024-03-02T03:00:01;133.18;;;43.97;;
20022;SDS011;10172;42.054;24.546;2024-03-02T03:02:34;122.53;;;47.45;;
20022;SDS011;10172;42.054;24.546;2024-03-02T03:05:00;135.93;;;48.83;;
20022;SDS011;10172;42.054;24.546;2024-03-02T03:07:26;117.65;;;44.58;;
20022;SDS011;10172;42.054;24.546;2024-03-02T03:09:51;114.63;;;43.92;;
20022;SDS011;10172;42.054;24.546;2024-03-02T03:12:16;137.43;;;44.70;;
20022;SDS011;10172;42.054;24.546;2024-03-02T03:14:42;150.70;;;45.15;;
20022;SDS011;10172;42.054;24.546;2024-03-02T03:17:07;137.82;;;46.42;;
20022;SDS011;10172;42.054;24.546;2024-03-02T03:19:33;119.10;;;47.47;;
20022;SDS011;10172;42.054;24.546;2024-03-02T03:21:58;113.53;;;44.72;;
20022;SDS011;10172;42.054;24.546;2024-03-02T03:24:24;114.43;;;44.28;;
20022;SDS011;10172;42.054;24.546;2024-03-02T03:26:49;115.65;;;44.80;;
20022;SDS011;10172;42.054;24.546;2024-03-02T03:29:14;118.10;;;43.78;;
20022;SDS011;10172;42.054;24.546;2024-03-02T03:31:40;121.30;;;43.28;;
20022;SDS011;10172;42.054;24.546;2024-03-02T03:34:05;128.02;;;44.78;;
20022;SDS011;10172;42.054;24.546;2024-03-02T03:36:30;130.68;;;45.47;;
20022;SDS011;10172;42.054;24.546;2024-03-02T03:38:56;126.18;;;43.88;;
20022;SDS011;10172;42.054;24.546;2024-03-02T03:41:23;174.95;;;46.20;;
20022;SDS011;10172;42.054;24.546;2024-03-02T03:43:49;297.38;;;54.28;;
20022;SDS011;10172;42.054;24.546;2024-03-02T03:46:14;304.20;;;62.00;;
20022;SDS011;10172;42.054;24.546;2024-03-02T03:48:40;441.13;;;57.30;;
20022;SDS011;10172;42.054;24.546;2024-03-02T03:51:06;213.82;;;56.50;;
20022;SDS011;10172;42.054;24.546;2024-03-02T03:53:32;379.83;;;49.25;;
20022;SDS011;10172;42.054;24.546;2024-03-02T03:55:57;450.48;;;49.60;;
20022;SDS011;10172;42.054;24.546;2024-03-02T03:58:23;406.17;;;45.78;;
20022;SDS011;10172;42.054;24.546;2024-03-02T04:00:48;595.38;;;46.67;;
20022;SDS011;10172;42.054;24.546;2024-03-02T04:03:13;457.17;;;49.17;;
20022;SDS011;10172;42.054;24.546;2024-03-02T04:05:39;338.25;;;49.00;;
20022;SDS011;10172;42.054;24.546;2024-03-02T04:08:04;193.48;;;41.88;;
20022;SDS011;10172;42.054;24.546;2024-03-02T04:10:30;192.80;;;41.38;;
20022;SDS011;10172;42.054;24.546;2024-03-02T04:12:55;285.90;;;46.60;;
20022;SDS011;10172;42.054;24.546;2024-03-02T04:15:21;322.38;;;48.78;;
20022;SDS011;10172;42.054;24.546;2024-03-02T04:17:48;156.88;;;43.42;;
20022;SDS011;10172;42.054;24.546;2024-03-02T04:20:13;348.85;;;48.17;;
20022;SDS011;10172;42.054;24.546;2024-03-02T04:22:39;324.00;;;45.72;;
20022;SDS011;10172;42.054;24.546;2024-03-02T04:25:04;224.88;;;43.17;;
20022;SDS011;10172;42.054;24.546;2024-03-02T04:27:30;195.50;;;45.25;;
20022;SDS011;10172;42.054;24.546;2024-03-02T04:29:57;296.58;;;44.67;;
20022;SDS011;10172;42.054;24.546;2024-03-02T04:32:23;148.77;;;46.28;;
20022;SDS011;10172;42.054;24.546;2024-03-02T04:34:48;175.65;;;44.75;;
20022;SDS011;10172;42.054;24.546;2024-03-02T04:37:13;160.10;;;43.55;;
20022;SDS011;10172;42.054;24.546;2024-03-02T04:39:39;122.38;;;40.50;;
20022;SDS011;10172;42.054;24.546;2024-03-02T04:42:05;127.15;;;38.33;;
20022;SDS011;10172;42.054;24.546;2024-03-02T04:44:30;133.18;;;39.13;;
20022;SDS011;10172;42.054;24.546;2024-03-02T04:46:55;148.90;;;39.88;;
20022;SDS011;10172;42.054;24.546;2024-03-02T04:49:21;176.07;;;38.72;;
20022;SDS011;10172;42.054;24.546;2024-03-02T04:51:46;187.93;;;36.78;;
20022;SDS011;10172;42.054;24.546;2024-03-02T04:54:12;127.30;;;39.63;;
20022;SDS011;10172;42.054;24.546;2024-03-02T04:56:39;142.23;;;37.60;;
20022;SDS011;10172;42.054;24.546;2024-03-02T04:59:14;127.70;;;41.72;;
20022;SDS011;10172;42.054;24.546;2024-03-02T05:01:43;158.45;;;40.85;;
20022;SDS011;10172;42.054;24.546;2024-03-02T05:04:09;138.80;;;41.42;;
20022;SDS011;10172;42.054;24.546;2024-03-02T05:06:37;158.77;;;44.55;;
20022;SDS011;10172;42.054;24.546;2024-03-02T05:09:03;165.27;;;57.05;;
20022;SDS011;10172;42.054;24.546;2024-03-02T05:11:29;213.85;;;42.45;;
20022;SDS011;10172;42.054;24.546;2024-03-02T05:14:14;328.20;;;39.33;;
20022;SDS011;10172;42.054;24.546;2024-03-02T05:16:40;239.35;;;34.42;;
20022;SDS011;10172;42.054;24.546;2024-03-02T05:19:06;338.50;;;36.20;;
20022;SDS011;10172;42.054;24.546;2024-03-02T05:21:32;238.75;;;36.17;;
20022;SDS011;10172;42.054;24.546;2024-03-02T05:23:58;222.40;;;33.70;;
20022;SDS011;10172;42.054;24.546;2024-03-02T05:26:24;315.75;;;33.78;;
20022;SDS011;10172;42.054;24.546;2024-03-02T05:28:49;307.35;;;40.97;;
20022;SDS011;10172;42.054;24.546;2024-03-02T05:31:15;427.02;;;46.05;;
20022;SDS011;10172;42.054;24.546;2024-03-02T05:33:40;400.40;;;48.25;;
20022;SDS011;10172;42.054;24.546;2024-03-02T05:36:06;399.00;;;49.85;;
20022;SDS011;10172;42.054;24.546;2024-03-02T05:38:32;512.88;;;56.95;;
20022;SDS011;10172;42.054;24.546;2024-03-02T05:40:59;321.30;;;43.58;;
20022;SDS011;10172;42.054;24.546;2024-03-02T05:43:25;461.70;;;46.70;;
20022;SDS011;10172;42.054;24.546;2024-03-02T05:45:50;382.75;;;56.58;;
20022;SDS011;10172;42.054;24.546;2024-03-02T05:48:15;321.20;;;44.63;;
20022;SDS011;10172;42.054;24.546;2024-03-02T05:50:41;239.40;;;34.53;;
20022;SDS011;10172;42.054;24.546;2024-03-02T05:53:06;427.58;;;50.63;;
20022;SDS011;10172;42.054;24.546;2024-03-02T05:55:32;387.67;;;98.65;;
20022;SDS011;10172;42.054;24.546;2024-03-02T05:57:58;365.48;;;88.57;;
20022;SDS011;10172;42.054;24.546;2024-03-02T06:00:23;258.13;;;79.80;;
20022;SDS011;10172;42.054;24.546;2024-03-02T06:02:48;246.32;;;41.38;;
20022;SDS011;10172;42.054;24.546;2024-03-02T06:05:14;213.80;;;35.53;;
20022;SDS011;10172;42.054;24.546;2024-03-02T06:07:40;243.32;;;40.53;;
20022;SDS011;10172;42.054;24.546;2024-03-02T06:10:06;144.73;;;41.72;;
20022;SDS011;10172;42.054;24.546;2024-03-02T06:12:33;125.68;;;37.63;;
20022;SDS011;10172;42.054;24.546;2024-03-02T06:14:59;133.05;;;34.40;;
20022;SDS011;10172;42.054;24.546;2024-03-02T06:17:24;100.50;;;31.30;;
20022;SDS011;10172;42.054;24.546;2024-03-02T06:19:50;99.88;;;35.13;;
20022;SDS011;10172;42.054;24.546;2024-03-02T06:22:15;104.00;;;36.45;;
20022;SDS011;10172;42.054;24.546;2024-03-02T06:24:40;97.45;;;34.40;;
20022;SDS011;10172;42.054;24.546;2024-03-02T06:27:06;93.32;;;29.42;;
20022;SDS011;10172;42.054;24.546;2024-03-02T06:29:34;94.93;;;28.65;;
20022;SDS011;10172;42.054;24.546;2024-03-02T06:32:00;125.72;;;28.65;;
20022;SDS011;10172;42.054;24.546;2024-03-02T06:34:25;113.55;;;33.63;;
20022;SDS011;10172;42.054;24.546;2024-03-02T06:36:51;95.65;;;31.48;;
20022;SDS011;10172;42.054;24.546;2024-03-02T06:39:16;113.53;;;32.95;;
20022;SDS011;10172;42.054;24.546;2024-03-02T06:41:41;86.85;;;30.27;;
20022;SDS011;10172;42.054;24.546;2024-03-02T06:44:12;100.50;;;30.98;;
20022;SDS011;10172;42.054;24.546;2024-03-02T06:46:37;94.53;;;31.67;;
20022;SDS011;10172;42.054;24.546;2024-03-02T06:49:02;102.18;;;31.98;;
20022;SDS011;10172;42.054;24.546;2024-03-02T06:51:29;95.72;;;33.35;;
20022;SDS011;10172;42.054;24.546;2024-03-02T06:53:54;89.00;;;33.28;;
20022;SDS011;10172;42.054;24.546;2024-03-02T06:56:20;92.45;;;32.75;;
20022;SDS011;10172;42.054;24.546;2024-03-02T06:58:46;77.57;;;28.52;;
20022;SDS011;10172;42.054;24.546;2024-03-02T07:01:11;87.85;;;30.30;;
20022;SDS011;10172;42.054;24.546;2024-03-02T07:03:37;77.35;;;31.33;;
20022;SDS011;10172;42.054;24.546;2024-03-02T07:06:04;81.75;;;33.08;;
20022;SDS011;10172;42.054;24.546;2024-03-02T07:08:30;77.50;;;30.52;;
20022;SDS011;10172;42.054;24.546;2024-03-02T07:10:55;77.35;;;31.52;;
20022;SDS011;10172;42.054;24.546;2024-03-02T07:13:21;76.63;;;34.78;;
20022;SDS011;10172;42.054;24.546;2024-03-02T07:15:47;81.25;;;34.40;;
20022;SDS011;10172;42.054;24.546;2024-03-02T07:18:27;90.03;;;36.28;;
20022;SDS011;10172;42.054;24.546;2024-03-02T07:20:53;79.20;;;30.50;;
20022;SDS011;10172;42.054;24.546;2024-03-02T07:23:18;75.38;;;32.90;;
20022;SDS011;10172;42.054;24.546;2024-03-02T07:25:45;79.25;;;31.98;;
20022;SDS011;10172;42.054;24.546;2024-03-02T07:28:10;69.90;;;30.80;;
20022;SDS011;10172;42.054;24.546;2024-03-02T07:30:36;62.08;;;27.20;;
20022;SDS011;10172;42.054;24.546;2024-03-02T07:33:03;60.15;;;26.55;;
20022;SDS011;10172;42.054;24.546;2024-03-02T07:35:29;57.75;;;24.85;;
20022;SDS011;10172;42.054;24.546;2024-03-02T07:37:56;65.53;;;28.25;;
20022;SDS011;10172;42.054;24.546;2024-03-02T07:40:22;70.80;;;30.17;;
20022;SDS011;10172;42.054;24.546;2024-03-02T07:42:48;66.57;;;28.48;;
20022;SDS011;10172;42.054;24.546;2024-03-02T07:45:13;68.20;;;26.65;;
20022;SDS011;10172;42.054;24.546;2024-03-02T07:47:39;66.05;;;29.02;;
20022;SDS011;10172;42.054;24.546;2024-03-02T07:50:04;75.95;;;36.00;;
20022;SDS011;10172;42.054;24.546;2024-03-02T07:52:31;53.20;;;26.65;;
20022;SDS011;10172;42.054;24.546;2024-03-02T07:54:57;69.47;;;33.53;;
20022;SDS011;10172;42.054;24.546;2024-03-02T07:57:22;72.75;;;32.63;;
20022;SDS011;10172;42.054;24.546;2024-03-02T07:59:48;97.07;;;41.78;;
20022;SDS011;10172;42.054;24.546;2024-03-02T08:02:14;56.22;;;28.65;;
20022;SDS011;10172;42.054;24.546;2024-03-02T08:04:40;47.83;;;25.63;;
20022;SDS011;10172;42.054;24.546;2024-03-02T08:07:06;59.40;;;30.45;;
20022;SDS011;10172;42.054;24.546;2024-03-02T08:09:31;48.03;;;25.55;;
20022;SDS011;10172;42.054;24.546;2024-03-02T08:11:56;54.72;;;27.95;;
20022;SDS011;10172;42.054;24.546;2024-03-02T08:14:23;48.90;;;27.55;;
20022;SDS011;10172;42.054;24.546;2024-03-02T08:16:49;56.30;;;25.45;;
20022;SDS011;10172;42.054;24.546;2024-03-02T08:19:14;45.45;;;26.23;;
20022;SDS011;10172;42.054;24.546;2024-03-02T08:21:40;52.72;;;28.98;;
20022;SDS011;10172;42.054;24.546;2024-03-02T08:24:05;68.00;;;31.95;;
20022;SDS011;10172;42.054;24.546;2024-03-02T08:26:31;50.95;;;27.88;;
20022;SDS011;10172;42.054;24.546;2024-03-02T08:28:57;38.83;;;21.55;;
20022;SDS011;10172;42.054;24.546;2024-03-02T08:31:23;43.08;;;23.80;;
20022;SDS011;10172;42.054;24.546;2024-03-02T08:33:49;38.58;;;23.08;;
20022;SDS011;10172;42.054;24.546;2024-03-02T08:36:14;44.90;;;26.95;;
20022;SDS011;10172;42.054;24.546;2024-03-02T08:38:43;87.90;;;38.00;;
20022;SDS011;10172;42.054;24.546;2024-03-02T08:41:09;46.88;;;27.05;;
20022;SDS011;10172;42.054;24.546;2024-03-02T08:43:34;43.13;;;24.50;;
20022;SDS011;10172;42.054;24.546;2024-03-02T08:46:00;43.45;;;24.73;;
20022;SDS011;10172;42.054;24.546;2024-03-02T08:48:25;47.38;;;28.80;;
20022;SDS011;10172;42.054;24.546;2024-03-02T08:50:50;44.78;;;27.77;;
20022;SDS011;10172;42.054;24.546;2024-03-02T08:53:16;43.30;;;24.10;;
20022;SDS011;10172;42.054;24.546;2024-03-02T08:55:45;50.28;;;24.65;;
20022;SDS011;10172;42.054;24.546;2024-03-02T08:58:11;43.15;;;25.55;;
20022;SDS011;10172;42.054;24.546;2024-03-02T09:00:37;37.03;;;20.33;;
20022;SDS011;10172;42.054;24.546;2024-03-02T09:03:02;37.33;;;22.85;;
20022;SDS011;10172;42.054;24.546;2024-03-02T09:05:28;37.03;;;22.15;;
20022;SDS011;10172;42.054;24.546;2024-03-02T09:07:54;39.25;;;24.63;;
20022;SDS011;10172;42.054;24.546;2024-03-02T09:10:19;48.42;;;27.63;;
20022;SDS011;10172;42.054;24.546;2024-03-02T09:12:44;59.97;;;30.67;;
20022;SDS011;10172;42.054;24.546;2024-03-02T09:15:10;41.00;;;25.17;;
20022;SDS011;10172;42.054;24.546;2024-03-02T09:17:35;55.60;;;27.77;;
20022;SDS011;10172;42.054;24.546;2024-03-02T09:20:00;46.35;;;24.75;;
20022;SDS011;10172;42.054;24.546;2024-03-02T09:22:26;38.10;;;21.85;;
20022;SDS011;10172;42.054;24.546;2024-03-02T09:24:51;39.05;;;19.45;;
20022;SDS011;10172;42.054;24.546;2024-03-02T09:27:17;50.65;;;24.65;;
20022;SDS011;10172;42.054;24.546;2024-03-02T09:29:42;43.22;;;26.95;;
20022;SDS011;10172;42.054;24.546;2024-03-02T09:32:08;83.00;;;43.17;;
20022;SDS011;10172;42.054;24.546;2024-03-02T09:34:37;64.70;;;33.45;;
20022;SDS011;10172;42.054;24.546;2024-03-02T09:37:03;45.50;;;25.25;;
20022;SDS011;10172;42.054;24.546;2024-03-02T09:39:29;47.25;;;26.25;;
20022;SDS011;10172;42.054;24.546;2024-03-02T09:41:54;40.88;;;23.58;;
20022;SDS011;10172;42.054;24.546;2024-03-02T09:44:20;40.42;;;23.67;;
20022;SDS011;10172;42.054;24.546;2024-03-02T09:46:50;41.85;;;24.38;;
20022;SDS011;10172;42.054;24.546;2024-03-02T09:49:16;51.78;;;31.88;;
20022;SDS011;10172;42.054;24.546;2024-03-02T09:51:45;33.85;;;21.17;;
20022;SDS011;10172;42.054;24.546;2024-03-02T09:54:12;37.22;;;21.33;;
20022;SDS011;10172;42.054;24.546;2024-03-02T09:56:38;32.88;;;18.67;;
20022;SDS011;10172;42.054;24.546;2024-03-02T09:59:04;30.13;;;19.20;;
20022;SDS011;10172;42.054;24.546;2024-03-02T10:01:30;44.47;;;28.20;;
20022;SDS011;10172;42.054;24.546;2024-03-02T10:03:56;46.92;;;32.78;;
20022;SDS011;10172;42.054;24.546;2024-03-02T10:06:27;62.72;;;45.42;;
20022;SDS011;10172;42.054;24.546;2024-03-02T10:08:54;33.58;;;24.23;;
20022;SDS011;10172;42.054;24.546;2024-03-02T10:11:26;25.33;;;16.73;;
20022;SDS011;10172;42.054;24.546;2024-03-02T10:14:09;39.50;;;26.73;;
20022;SDS011;10172;42.054;24.546;2024-03-02T10:16:40;31.80;;;20.58;;
20022;SDS011;10172;42.054;24.546;2024-03-02T10:21:49;54.63;;;35.50;;
20022;SDS011;10172;42.054;24.546;2024-03-02T10:24:19;35.45;;;23.73;;
20022;SDS011;10172;42.054;24.546;2024-03-02T10:26:46;43.03;;;27.25;;
20022;SDS011;10172;42.054;24.546;2024-03-02T10:29:12;37.33;;;27.98;;
20022;SDS011;10172;42.054;24.546;2024-03-02T10:31:38;32.58;;;21.25;;
20022;SDS011;10172;42.054;24.546;2024-03-02T10:34:04;32.92;;;24.42;;
20022;SDS011;10172;42.054;24.546;2024-03-02T10:36:30;30.02;;;21.48;;
20022;SDS011;10172;42.054;24.546;2024-03-02T10:38:57;27.23;;;18.77;;
20022;SDS011;10172;42.054;24.546;2024-03-02T10:41:24;29.20;;;18.92;;
20022;SDS011;10172;42.054;24.546;2024-03-02T10:43:52;31.33;;;21.73;;
20022;SDS011;10172;42.054;24.546;2024-03-02T10:46:20;28.67;;;19.65;;
20022;SDS011;10172;42.054;24.546;2024-03-02T10:48:47;28.45;;;18.48;;
20022;SDS011;10172;42.054;24.546;2024-03-02T10:51:14;30.05;;;20.20;;
20022;SDS011;10172;42.054;24.546;2024-03-02T10:53:40;27.17;;;18.63;;
20022;SDS011;10172;42.054;24.546;2024-03-02T10:56:06;22.23;;;16.38;;
20022;SDS011;10172;42.054;24.546;2024-03-02T10:58:32;22.85;;;16.27;;
20022;SDS011;10172;42.054;24.546;2024-03-02T11:01:04;18.73;;;12.95;;
20022;SDS011;10172;42.054;24.546;2024-03-02T11:03:35;16.90;;;12.90;;
20022;SDS011;10172;42.054;24.546;2024-03-02T11:06:05;19.92;;;15.07;;
20022;SDS011;10172;42.054;24.546;2024-03-02T11:08:33;23.25;;;16.45;;
20022;SDS011;10172;42.054;24.546;2024-03-02T11:11:05;21.67;;;16.42;;
20022;SDS011;10172;42.054;24.546;2024-03-02T11:13:32;22.17;;;16.17;;
20022;SDS011;10172;42.054;24.546;2024-03-02T11:15:59;21.45;;;15.00;;
20022;SDS011;10172;42.054;24.546;2024-03-02T11:18:30;31.75;;;21.40;;
20022;SDS011;10172;42.054;24.546;2024-03-02T11:20:57;33.50;;;21.98;;
20022;SDS011;10172;42.054;24.546;2024-03-02T11:23:33;34.38;;;23.88;;
20022;SDS011;10172;42.054;24.546;2024-03-02T11:26:18;39.28;;;24.85;;
20022;SDS011;10172;42.054;24.546;2024-03-02T11:28:44;28.90;;;20.20;;
20022;SDS011;10172;42.054;24.546;2024-03-02T11:31:10;31.63;;;21.42;;
20022;SDS011;10172;42.054;24.546;2024-03-02T11:33:35;32.28;;;22.23;;
20022;SDS011;10172;42.054;24.546;2024-03-02T11:36:01;41.25;;;26.75;;
20022;SDS011;10172;42.054;24.546;2024-03-02T11:38:27;39.17;;;26.23;;
20022;SDS011;10172;42.054;24.546;2024-03-02T11:40:54;35.67;;;24.58;;
20022;SDS011;10172;42.054;24.546;2024-03-02T11:43:20;27.80;;;19.55;;
20022;SDS011;10172;42.054;24.546;2024-03-02T11:45:46;33.20;;;21.60;;
20022;SDS011;10172;42.054;24.546;2024-03-02T11:48:14;32.35;;;22.05;;
20022;SDS011;10172;42.054;24.546;2024-03-02T11:50:40;25.38;;;18.52;;
20022;SDS011;10172;42.054;24.546;2024-03-02T11:53:11;38.20;;;25.92;;
20022;SDS011;10172;42.054;24.546;2024-03-02T11:55:38;34.88;;;23.98;;
20022;SDS011;10172;42.054;24.546;2024-03-02T11:58:06;29.27;;;20.10;;
20022;SDS011;10172;42.054;24.546;2024-03-02T12:00:32;32.50;;;21.83;;
20022;SDS011;10172;42.054;24.546;2024-03-02T12:03:05;33.40;;;23.30;;
20022;SDS011;10172;42.054;24.546;2024-03-02T12:05:37;27.83;;;18.25;;
20022;SDS011;10172;42.054;24.546;2024-03-02T12:08:03;34.95;;;23.80;;
20022;SDS011;10172;42.054;24.546;2024-03-02T12:10:30;29.33;;;20.40;;
20022;SDS011;10172;42.054;24.546;2024-03-02T12:13:03;33.30;;;23.80;;
20022;SDS011;10172;42.054;24.546;2024-03-02T12:15:30;35.78;;;23.52;;
20022;SDS011;10172;42.054;24.546;2024-03-02T12:17:57;27.17;;;18.48;;
20022;SDS011;10172;42.054;24.546;2024-03-02T12:20:25;43.30;;;28.38;;
20022;SDS011;10172;42.054;24.546;2024-03-02T12:22:52;40.05;;;27.35;;
20022;SDS011;10172;42.054;24.546;2024-03-02T12:25:22;58.13;;;34.95;;
20022;SDS011;10172;42.054;24.546;2024-03-02T12:27:49;41.17;;;26.85;;
20022;SDS011;10172;42.054;24.546;2024-03-02T12:30:16;52.97;;;32.63;;
20022;SDS011;10172;42.054;24.546;2024-03-02T12:32:42;40.17;;;26.58;;
20022;SDS011;10172;42.054;24.546;2024-03-02T12:35:09;32.60;;;22.20;;
20022;SDS011;10172;42.054;24.546;2024-03-02T12:37:43;37.55;;;25.80;;
20022;SDS011;10172;42.054;24.546;2024-03-02T12:40:10;24.85;;;18.95;;
20022;SDS011;10172;42.054;24.546;2024-03-02T12:42:37;35.53;;;24.25;;
20022;SDS011;10172;42.054;24.546;2024-03-02T12:45:02;36.20;;;27.00;;
20022;SDS011;10172;42.054;24.546;2024-03-02T12:47:28;35.92;;;25.80;;
20022;SDS011;10172;42.054;24.546;2024-03-02T12:49:54;30.63;;;20.73;;
20022;SDS011;10172;42.054;24.546;2024-03-02T12:52:21;26.52;;;20.20;;
20022;SDS011;10172;42.054;24.546;2024-03-02T12:54:47;18.17;;;12.90;;
20022;SDS011;10172;42.054;24.546;2024-03-02T12:57:16;15.45;;;11.98;;
20022;SDS011;10172;42.054;24.546;2024-03-02T12:59:45;19.45;;;13.32;;
20022;SDS011;10172;42.054;24.546;2024-03-02T13:02:16;23.38;;;17.65;;
20022;SDS011;10172;42.054;24.546;2024-03-02T13:04:43;18.77;;;14.05;;
20022;SDS011;10172;42.054;24.546;2024-03-02T13:07:08;18.83;;;13.98;;
20022;SDS011;10172;42.054;24.546;2024-03-02T13:09:33;32.13;;;22.88;;
20022;SDS011;10172;42.054;24.546;2024-03-02T13:12:00;37.88;;;21.23;;
20022;SDS011;10172;42.054;24.546;2024-03-02T13:14:26;21.38;;;15.00;;
20022;SDS011;10172;42.054;24.546;2024-03-02T13:16:51;31.60;;;22.38;;
20022;SDS011;10172;42.054;24.546;2024-03-02T13:19:17;20.80;;;14.15;;
20022;SDS011;10172;42.054;24.546;2024-03-02T13:21:46;26.60;;;19.02;;
20022;SDS011;10172;42.054;24.546;2024-03-02T13:24:11;24.00;;;17.75;;
20022;SDS011;10172;42.054;24.546;2024-03-02T13:26:37;22.35;;;16.83;;
20022;SDS011;10172;42.054;24.546;2024-03-02T13:29:02;21.63;;;15.35;;
20022;SDS011;10172;42.054;24.546;2024-03-02T13:31:28;16.65;;;12.02;;
20022;SDS011;10172;42.054;24.546;2024-03-02T13:33:53;14.10;;;11.45;;
20022;SDS011;10172;42.054;24.546;2024-03-02T13:36:18;17.05;;;13.23;;
20022;SDS011;10172;42.054;24.546;2024-03-02T13:38:44;18.15;;;12.90;;
20022;SDS011;10172;42.054;24.546;2024-03-02T13:41:09;16.02;;;12.00;;
20022;SDS011;10172;42.054;24.546;2024-03-02T13:43:36;19.25;;;15.63;;
20022;SDS011;10172;42.054;24.546;2024-03-02T13:46:04;20.55;;;16.90;;
20022;SDS011;10172;42.054;24.546;2024-03-02T13:48:29;11.88;;;9.05;;
20022;SDS011;10172;42.054;24.546;2024-03-02T13:50:55;16.98;;;12.43;;
20022;SDS011;10172;42.054;24.546;2024-03-02T13:53:21;13.25;;;10.15;;
20022;SDS011;10172;42.054;24.546;2024-03-02T13:55:46;13.45;;;9.50;;
20022;SDS011;10172;42.054;24.546;2024-03-02T13:58:11;16.52;;;11.77;;
20022;SDS011;10172;42.054;24.546;2024-03-02T14:00:37;19.70;;;13.18;;
20022;SDS011;10172;42.054;24.546;2024-03-02T14:03:04;14.18;;;11.45;;
20022;SDS011;10172;42.054;24.546;2024-03-02T14:05:31;36.33;;;25.48;;
20022;SDS011;10172;42.054;24.546;2024-03-02T14:07:57;14.10;;;10.07;;